createdAt,value
2023-05-11T00:00:01.711Z,36.72
2023-05-11T00:01:01.709Z,36.66
2023-05-11T00:02:01.827Z,36.68
2023-05-11T00:03:01.833Z,36.70
2023-05-11T00:04:01.888Z,36.70
2023-05-11T00:05:01.825Z,36.65
2023-05-11T00:06:01.846Z,36.64
2023-05-11T00:07:01.845Z,36.65
2023-05-11T00:08:01.880Z,36.64
2023-05-11T00:09:01.921Z,36.63
2023-05-11T00:10:01.926Z,36.67
2023-05-11T00:11:01.934Z,36.65
2023-05-11T00:12:01.998Z,36.63
2023-05-11T00:13:02.009Z,36.60
2023-05-11T00:14:02.067Z,36.61
2023-05-11T00:15:02.094Z,36.60
2023-05-11T00:16:02.146Z,36.57
2023-05-11T00:17:02.154Z,36.58
2023-05-11T00:18:02.198Z,36.56
2023-05-11T00:19:02.244Z,36.55
2023-05-11T00:20:02.245Z,36.52
2023-05-11T00:21:02.268Z,36.54
2023-05-11T00:22:02.289Z,36.53
2023-05-11T00:23:02.310Z,36.53
2023-05-11T00:24:02.388Z,36.51
2023-05-11T00:25:02.387Z,36.51
2023-05-11T00:26:02.468Z,36.52
2023-05-11T00:27:02.484Z,36.47
2023-05-11T00:28:02.519Z,36.46
2023-05-11T00:29:02.550Z,36.48
2023-05-11T00:30:02.581Z,36.45
2023-05-11T00:31:02.641Z,36.45
2023-05-11T00:32:02.620Z,36.41
2023-05-11T00:33:02.714Z,36.43
2023-05-11T00:34:02.716Z,36.38
2023-05-11T00:35:02.733Z,36.40
2023-05-11T00:36:02.789Z,36.38
2023-05-11T00:37:02.816Z,36.40
2023-05-11T00:38:02.823Z,36.37
2023-05-11T00:39:02.866Z,36.39
2023-05-11T00:40:02.877Z,36.34
2023-05-11T00:41:02.917Z,36.32
2023-05-11T00:42:02.928Z,36.35
2023-05-11T00:43:02.960Z,36.33
2023-05-11T00:44:03.005Z,36.32
2023-05-11T00:45:03.017Z,36.32
2023-05-11T00:46:03.044Z,36.30
2023-05-11T00:47:03.222Z,36.32
2023-05-11T00:48:03.157Z,36.30
2023-05-11T00:49:03.195Z,36.30
2023-05-11T00:50:03.224Z,36.28
2023-05-11T00:51:03.246Z,36.29
2023-05-11T00:52:03.368Z,36.27
2023-05-11T00:53:03.288Z,36.26
2023-05-11T00:54:03.331Z,36.28
2023-05-11T00:55:03.362Z,36.25
2023-05-11T00:56:03.396Z,36.21
2023-05-11T00:57:03.430Z,36.22
2023-05-11T00:58:03.480Z,36.22
2023-05-11T00:59:03.493Z,36.17
2023-05-11T01:00:03.554Z,36.18
2023-05-11T01:01:03.703Z,36.17
2023-05-11T01:02:03.615Z,36.18
2023-05-11T01:03:03.629Z,36.11
2023-05-11T01:04:03.638Z,36.11
2023-05-11T01:05:03.692Z,36.06
2023-05-11T01:06:03.714Z,36.07
2023-05-11T01:07:03.769Z,36.08
2023-05-11T01:08:03.787Z,36.08
2023-05-11T01:09:03.817Z,36.05
2023-05-11T01:10:03.863Z,36.02
2023-05-11T01:11:03.923Z,36.00
2023-05-11T01:12:03.911Z,35.96
2023-05-11T01:13:03.932Z,35.99
2023-05-11T01:14:04.021Z,35.96
2023-05-11T01:15:04.021Z,35.98
2023-05-11T01:16:04.104Z,35.98
2023-05-11T01:17:04.160Z,35.95
2023-05-11T01:18:04.205Z,35.96
2023-05-11T01:19:04.278Z,35.95
2023-05-11T01:20:04.185Z,35.94
2023-05-11T01:21:04.217Z,35.91
2023-05-11T01:22:04.234Z,35.92
2023-05-11T01:23:04.319Z,35.89
2023-05-11T01:24:04.310Z,35.87
2023-05-11T01:25:04.322Z,35.87
2023-05-11T01:26:04.395Z,35.84
2023-05-11T01:27:04.440Z,35.85
2023-05-11T01:28:04.448Z,35.80
2023-05-11T01:29:04.506Z,35.81
2023-05-11T01:30:04.616Z,35.78
2023-05-11T01:31:04.572Z,35.79
2023-05-11T01:32:04.697Z,35.78
2023-05-11T01:33:04.678Z,35.75
2023-05-11T01:34:04.672Z,35.74
2023-05-11T01:35:04.693Z,35.73
2023-05-11T01:36:04.751Z,35.72
2023-05-11T01:37:04.806Z,35.74
2023-05-11T01:38:04.826Z,35.72
2023-05-11T01:39:04.877Z,35.68
2023-05-11T01:40:04.902Z,35.70
2023-05-11T01:41:04.947Z,35.64
2023-05-11T01:42:04.951Z,35.62
2023-05-11T01:43:04.995Z,35.63
2023-05-11T01:44:05.045Z,35.62
2023-05-11T01:45:05.071Z,35.62
2023-05-11T01:46:05.139Z,35.59
2023-05-11T01:47:05.174Z,35.62
2023-05-11T01:48:05.256Z,35.60
2023-05-11T01:49:05.219Z,35.54
2023-05-11T01:50:05.253Z,35.58
2023-05-11T01:51:05.259Z,35.55
2023-05-11T01:52:05.285Z,35.56
2023-05-11T01:53:05.342Z,35.57
2023-05-11T01:54:05.352Z,35.55
2023-05-11T01:55:05.423Z,35.53
2023-05-11T01:56:05.431Z,35.54
2023-05-11T01:57:05.473Z,35.50
2023-05-11T01:58:05.545Z,35.52
2023-05-11T01:59:05.547Z,35.49
2023-05-11T02:00:05.561Z,35.47
2023-05-11T02:01:05.594Z,35.44
2023-05-11T02:02:05.597Z,35.44
2023-05-11T02:03:05.741Z,35.45
2023-05-11T02:04:05.696Z,35.41
2023-05-11T02:05:05.711Z,35.40
2023-05-11T02:06:05.805Z,35.40
2023-05-11T02:07:05.801Z,35.39
2023-05-11T02:08:05.816Z,35.39
2023-05-11T02:09:05.863Z,35.37
2023-05-11T02:10:05.894Z,35.38
2023-05-11T02:11:05.969Z,35.34
2023-05-11T02:12:05.951Z,35.35
2023-05-11T02:13:06.015Z,35.33
2023-05-11T02:14:06.086Z,35.33
2023-05-11T02:15:06.089Z,35.36
2023-05-11T02:16:06.116Z,35.33
2023-05-11T02:17:06.116Z,35.32
2023-05-11T02:18:06.260Z,35.31
2023-05-11T02:19:06.218Z,35.30
2023-05-11T02:20:06.283Z,35.29
2023-05-11T02:21:06.293Z,35.28
2023-05-11T02:22:06.286Z,35.26
2023-05-11T02:23:06.312Z,35.26
2023-05-11T02:24:06.382Z,35.27
2023-05-11T02:25:06.410Z,35.25
2023-05-11T02:26:06.470Z,35.21
2023-05-11T02:27:06.436Z,35.20
2023-05-11T02:28:06.480Z,35.21
2023-05-11T02:29:06.513Z,35.18
2023-05-11T02:30:06.557Z,35.17
2023-05-11T02:31:06.601Z,35.18
2023-05-11T02:32:06.605Z,35.14
2023-05-11T02:33:06.689Z,35.11
2023-05-11T02:34:06.659Z,35.13
2023-05-11T02:35:06.708Z,35.10
2023-05-11T02:36:06.782Z,35.11
2023-05-11T02:37:07.381Z,35.06
2023-05-11T02:38:06.823Z,35.07
2023-05-11T02:39:06.862Z,35.06
2023-05-11T02:40:06.885Z,35.07
2023-05-11T02:41:06.913Z,35.05
2023-05-11T02:42:06.979Z,35.03
2023-05-11T02:43:07.043Z,35.03
2023-05-11T02:44:07.045Z,35.04
2023-05-11T02:45:07.070Z,35.02
2023-05-11T02:46:07.107Z,35.00
2023-05-11T02:47:07.139Z,35.01
2023-05-11T02:48:07.187Z,35.02
2023-05-11T02:49:07.181Z,34.96
2023-05-11T02:50:07.229Z,34.96
2023-05-11T02:51:07.273Z,34.96
2023-05-11T02:52:07.326Z,34.96
2023-05-11T02:53:07.338Z,34.93
2023-05-11T02:54:07.364Z,34.96
2023-05-11T02:55:07.374Z,34.93
2023-05-11T02:56:07.414Z,34.87
2023-05-11T02:57:07.480Z,34.88
2023-05-11T02:58:07.592Z,34.88
2023-05-11T02:59:07.559Z,34.87
2023-05-11T03:00:07.589Z,34.86
2023-05-11T03:01:07.740Z,34.86
2023-05-11T03:02:07.750Z,34.84
2023-05-11T03:03:07.805Z,34.82
2023-05-11T03:04:07.733Z,34.85
2023-05-11T03:05:07.783Z,34.82
2023-05-11T03:06:07.804Z,34.82
2023-05-11T03:07:07.850Z,34.79
2023-05-11T03:08:07.855Z,34.79
2023-05-11T03:09:09.987Z,34.78
2023-05-11T03:10:07.937Z,34.76
2023-05-11T03:11:08.002Z,34.77
2023-05-11T03:12:08.017Z,34.75
2023-05-11T03:13:08.048Z,34.76
2023-05-11T03:14:08.089Z,34.75
2023-05-11T03:15:08.096Z,34.76
2023-05-11T03:16:08.124Z,34.73
2023-05-11T03:17:08.228Z,34.72
2023-05-11T03:18:08.242Z,34.72
2023-05-11T03:19:08.267Z,34.72
2023-05-11T03:20:08.300Z,34.72
2023-05-11T03:21:08.297Z,34.73
2023-05-11T03:22:08.416Z,34.72
2023-05-11T03:23:08.391Z,34.73
2023-05-11T03:24:08.404Z,34.69
2023-05-11T03:25:08.466Z,34.66
2023-05-11T03:26:08.481Z,34.67
2023-05-11T03:27:08.518Z,34.68
2023-05-11T03:28:08.574Z,34.68
2023-05-11T03:29:08.610Z,34.68
2023-05-11T03:30:08.652Z,34.69
2023-05-11T03:31:08.670Z,34.65
2023-05-11T03:32:08.752Z,34.68
2023-05-11T03:33:08.787Z,34.65
2023-05-11T03:34:08.826Z,34.66
2023-05-11T03:35:08.822Z,34.64
2023-05-11T03:36:08.863Z,34.64
2023-05-11T03:37:08.887Z,34.64
2023-05-11T03:38:08.929Z,34.64
2023-05-11T03:39:08.986Z,34.62
2023-05-11T03:40:09.050Z,34.64
2023-05-11T03:41:09.075Z,34.62
2023-05-11T03:42:09.127Z,34.64
2023-05-11T03:43:09.128Z,34.61
2023-05-11T03:44:09.958Z,34.61
2023-05-11T03:45:09.197Z,34.62
2023-05-11T03:46:09.278Z,34.61
2023-05-11T03:47:09.280Z,34.61
2023-05-11T03:48:09.305Z,34.61
2023-05-11T03:49:11.505Z,34.60
2023-05-11T03:50:09.338Z,34.59
2023-05-11T03:51:09.338Z,34.59
2023-05-11T03:52:09.328Z,34.60
2023-05-11T03:53:09.339Z,34.58
2023-05-11T03:54:09.337Z,34.58
2023-05-11T03:55:09.361Z,34.58
2023-05-11T03:56:09.336Z,34.58
2023-05-11T03:57:09.320Z,34.58
2023-05-11T03:58:09.315Z,34.57
2023-05-11T03:59:09.361Z,34.59
2023-05-11T04:00:09.298Z,34.57
2023-05-11T04:01:09.340Z,34.58
2023-05-11T04:02:09.383Z,34.57
2023-05-11T04:03:09.423Z,34.54
2023-05-11T04:04:09.378Z,34.54
2023-05-11T04:05:09.355Z,34.55
2023-05-11T04:06:09.323Z,34.55
2023-05-11T04:07:09.332Z,34.54
2023-05-11T04:08:09.285Z,34.54
2023-05-11T04:09:09.287Z,34.52
2023-05-11T04:10:09.315Z,34.50
2023-05-11T04:11:09.308Z,34.47
2023-05-11T04:12:09.296Z,34.48
2023-05-11T04:13:09.309Z,34.47
2023-05-11T04:14:09.300Z,34.48
2023-05-11T04:15:09.313Z,34.48
2023-05-11T04:16:09.316Z,34.46
2023-05-11T04:17:09.312Z,34.47
2023-05-11T04:18:09.331Z,34.47
2023-05-11T04:19:09.364Z,34.49
2023-05-11T04:20:09.280Z,34.44
2023-05-11T04:21:09.296Z,34.48
2023-05-11T04:22:09.355Z,34.47
2023-05-11T04:23:10.382Z,34.45
2023-05-11T04:24:09.412Z,34.45
2023-05-11T04:25:09.456Z,34.44
2023-05-11T04:26:09.520Z,34.44
2023-05-11T04:27:09.546Z,34.46
2023-05-11T04:28:09.578Z,34.43
2023-05-11T04:29:09.625Z,34.45
2023-05-11T04:30:09.664Z,34.42
2023-05-11T04:31:09.765Z,34.41
2023-05-11T04:32:09.729Z,34.42
2023-05-11T04:33:09.787Z,34.44
2023-05-11T04:34:09.829Z,34.42
2023-05-11T04:35:09.859Z,34.41
2023-05-11T04:36:09.901Z,34.37
2023-05-11T04:37:09.951Z,34.37
2023-05-11T04:38:09.983Z,34.34
2023-05-11T04:39:10.018Z,34.43
2023-05-11T04:40:10.061Z,34.33
2023-05-11T04:41:10.072Z,34.35
2023-05-11T04:42:10.107Z,34.34
2023-05-11T04:43:10.168Z,34.32
2023-05-11T04:44:10.177Z,34.33
2023-05-11T04:45:10.227Z,34.32
2023-05-11T04:46:10.206Z,34.37
2023-05-11T04:47:10.258Z,34.32
2023-05-11T04:48:10.358Z,34.31
2023-05-11T04:49:10.345Z,34.30
2023-05-11T04:50:10.377Z,34.29
2023-05-11T04:51:10.487Z,34.28
2023-05-11T04:52:10.414Z,34.26
2023-05-11T04:53:10.453Z,34.26
2023-05-11T04:54:10.488Z,34.27
2023-05-11T04:55:10.516Z,34.27
2023-05-11T04:56:10.630Z,34.24
2023-05-11T04:57:10.617Z,34.24
2023-05-11T04:58:10.612Z,34.24
2023-05-11T04:59:10.687Z,34.24
2023-05-11T05:00:10.796Z,34.20
2023-05-11T05:01:17.898Z,34.26
2023-05-11T05:02:10.732Z,34.21
2023-05-11T05:03:10.777Z,34.22
2023-05-11T05:04:10.753Z,34.19
2023-05-11T05:05:10.734Z,34.20
2023-05-11T05:06:10.684Z,34.18
2023-05-11T05:07:10.697Z,34.16
2023-05-11T05:08:10.689Z,34.17
2023-05-11T05:09:10.711Z,34.12
2023-05-11T05:10:10.680Z,34.07
2023-05-11T05:11:10.698Z,34.09
2023-05-11T05:12:10.706Z,34.13
2023-05-11T05:13:10.666Z,34.07
2023-05-11T05:14:10.671Z,34.11
2023-05-11T05:15:10.683Z,34.11
2023-05-11T05:16:10.745Z,34.12
2023-05-11T05:17:10.716Z,34.10
2023-05-11T05:18:10.739Z,34.08
2023-05-11T05:19:10.685Z,34.10
2023-05-11T05:20:10.679Z,34.09
2023-05-11T05:21:10.686Z,34.10
2023-05-11T05:22:10.691Z,34.08
2023-05-11T05:23:10.703Z,34.04
2023-05-11T05:24:10.668Z,34.00
2023-05-11T05:25:10.664Z,34.03
2023-05-11T05:26:10.669Z,34.02
2023-05-11T05:27:10.670Z,34.02
2023-05-11T05:28:10.681Z,34.01
2023-05-11T05:29:10.678Z,33.98
2023-05-11T05:30:10.683Z,33.99
2023-05-11T05:31:10.709Z,33.93
2023-05-11T05:32:10.662Z,34.00
2023-05-11T05:33:10.696Z,34.00
2023-05-11T05:34:10.673Z,33.91
2023-05-11T05:35:10.697Z,33.93
2023-05-11T05:36:10.695Z,34.21
2023-05-11T05:37:10.699Z,34.75
2023-05-11T05:38:10.705Z,35.34
2023-05-11T05:39:10.687Z,35.28
2023-05-11T05:40:10.760Z,35.31
2023-05-11T05:41:11.003Z,35.75
2023-05-11T05:42:10.845Z,35.98
2023-05-11T05:43:10.924Z,36.66
2023-05-11T05:44:11.023Z,36.72
2023-05-11T05:45:18.065Z,36.67
2023-05-11T05:46:11.521Z,36.96
2023-05-11T05:47:11.024Z,36.74
2023-05-11T05:48:11.100Z,36.81
2023-05-11T05:49:11.054Z,36.76
2023-05-11T05:50:11.064Z,36.91
2023-05-11T05:51:11.097Z,36.96
2023-05-11T05:52:11.150Z,36.69
2023-05-11T05:53:11.118Z,36.73
2023-05-11T05:54:11.118Z,36.72
2023-05-11T05:55:11.129Z,36.81
2023-05-11T05:56:11.139Z,37.06
2023-05-11T05:57:12.283Z,37.00
2023-05-11T05:58:11.098Z,36.99
2023-05-11T05:59:11.153Z,36.99
2023-05-11T06:00:11.107Z,37.05
2023-05-11T06:01:11.118Z,37.22
2023-05-11T06:02:11.171Z,37.11
2023-05-11T06:03:11.220Z,37.08
2023-05-11T06:04:11.232Z,36.98
2023-05-11T06:05:11.153Z,37.19
2023-05-11T06:06:11.149Z,37.21
2023-05-11T06:07:11.166Z,37.12
2023-05-11T06:08:11.599Z,37.14
2023-05-11T06:09:11.151Z,37.31
2023-05-11T06:10:11.147Z,37.43
2023-05-11T06:11:11.191Z,37.38
2023-05-11T06:12:11.209Z,37.20
2023-05-11T06:13:11.229Z,37.25
2023-05-11T06:14:11.234Z,37.34
2023-05-11T06:15:11.254Z,37.84
2023-05-11T06:16:11.368Z,37.58
2023-05-11T06:17:11.364Z,36.74
2023-05-11T06:18:11.386Z,35.55
2023-05-11T06:19:11.432Z,35.06
2023-05-11T06:20:11.383Z,35.86
2023-05-11T06:21:11.470Z,35.56
2023-05-11T06:22:11.532Z,35.00
2023-05-11T06:23:11.540Z,35.00
2023-05-11T06:24:11.620Z,35.31
2023-05-11T06:25:11.703Z,35.30
2023-05-11T06:26:11.711Z,34.73
2023-05-11T06:27:11.819Z,35.06
2023-05-11T06:28:11.834Z,34.87
2023-05-11T06:29:11.873Z,35.50
2023-05-11T06:30:11.875Z,35.69
2023-05-11T06:31:12.024Z,35.35
2023-05-11T06:32:11.957Z,35.20
2023-05-11T06:33:12.000Z,35.16
2023-05-11T06:34:12.012Z,35.16
2023-05-11T06:35:12.049Z,35.30
2023-05-11T06:36:12.139Z,34.86
2023-05-11T06:37:12.062Z,34.02
2023-05-11T06:38:12.099Z,34.10
2023-05-11T06:39:12.139Z,34.01
2023-05-11T06:40:12.175Z,34.61
2023-05-11T06:41:12.289Z,35.51
2023-05-11T06:42:12.327Z,35.84
2023-05-11T06:43:12.485Z,36.20
2023-05-11T06:44:12.448Z,36.43
2023-05-11T06:45:12.590Z,36.48
2023-05-11T06:46:12.655Z,36.34
2023-05-11T06:47:12.628Z,36.19
2023-05-11T06:48:12.735Z,36.28
2023-05-11T06:49:12.723Z,36.08
2023-05-11T06:50:12.758Z,35.99
2023-05-11T06:51:12.745Z,35.91
2023-05-11T06:52:12.808Z,35.86
2023-05-11T06:53:12.828Z,35.98
2023-05-11T06:54:12.874Z,35.89
2023-05-11T06:55:12.941Z,35.91
2023-05-11T06:56:12.989Z,35.93
2023-05-11T06:57:14.558Z,35.98
2023-05-11T06:58:14.027Z,35.84
2023-05-11T06:59:13.006Z,35.93
2023-05-11T07:00:13.012Z,35.97
2023-05-11T07:01:13.063Z,35.92
2023-05-11T07:02:12.994Z,35.92
2023-05-11T07:03:13.106Z,35.90
2023-05-11T07:04:12.988Z,36.02
2023-05-11T07:05:13.018Z,35.92
2023-05-11T07:06:12.964Z,35.98
2023-05-11T07:07:12.925Z,35.99
2023-05-11T07:08:12.951Z,36.00
2023-05-11T07:09:12.933Z,35.85
2023-05-11T07:10:12.887Z,35.91
2023-05-11T07:11:12.885Z,35.98
2023-05-11T07:12:12.878Z,35.94
2023-05-11T07:13:12.920Z,35.93
2023-05-11T07:14:12.954Z,36.05
2023-05-11T07:15:12.930Z,36.07
2023-05-11T07:16:12.995Z,36.21
2023-05-11T07:17:13.076Z,36.20
2023-05-11T07:18:13.066Z,36.02
2023-05-11T07:20:13.112Z,36.12
2023-05-11T07:21:13.188Z,36.08
2023-05-11T07:22:15.032Z,36.16
2023-05-11T07:23:13.556Z,36.22
2023-05-11T07:24:13.230Z,36.31
2023-05-11T07:25:13.259Z,36.28
2023-05-11T07:26:13.284Z,36.33
2023-05-11T07:27:13.298Z,36.41
2023-05-11T07:28:13.363Z,36.45
2023-05-11T07:29:13.367Z,36.52
2023-05-11T07:30:13.459Z,36.36
2023-05-11T07:31:13.488Z,35.82
2023-05-11T07:32:13.494Z,35.60
2023-05-11T07:33:13.528Z,35.90
2023-05-11T07:34:13.533Z,36.26
2023-05-11T07:35:13.552Z,36.55
2023-05-11T07:36:13.583Z,36.74
2023-05-11T07:37:13.617Z,36.97
2023-05-11T07:38:14.079Z,36.51
2023-05-11T07:39:13.726Z,36.16
2023-05-11T07:40:13.770Z,36.14
2023-05-11T07:41:13.792Z,36.42
2023-05-11T07:42:13.875Z,35.59
2023-05-11T07:43:14.080Z,35.23
2023-05-11T07:44:14.026Z,34.78
2023-05-11T07:45:14.035Z,35.21
2023-05-11T07:46:14.079Z,35.31
2023-05-11T07:47:14.160Z,35.32
2023-05-11T07:48:14.320Z,35.22
2023-05-11T07:49:18.927Z,35.04
2023-05-11T07:50:15.907Z,34.64
2023-05-11T07:51:14.585Z,34.73
2023-05-11T07:52:14.624Z,34.83
2023-05-11T07:53:14.683Z,34.73
2023-05-11T07:54:14.720Z,34.64
2023-05-11T07:55:14.732Z,34.47
2023-05-11T07:56:14.758Z,34.39
2023-05-11T07:57:14.780Z,34.28
2023-05-11T07:58:14.848Z,34.16
2023-05-11T07:59:14.889Z,34.14
2023-05-11T08:00:14.930Z,34.04
2023-05-11T08:01:14.958Z,34.00
2023-05-11T08:02:15.058Z,33.83
2023-05-11T08:03:15.102Z,33.77
2023-05-11T08:04:15.151Z,33.68
2023-05-11T08:05:15.181Z,33.49
2023-05-11T08:06:15.381Z,33.49
2023-05-11T08:07:15.291Z,33.38
2023-05-11T08:08:15.347Z,33.28
2023-05-11T08:09:15.397Z,33.26
2023-05-11T08:10:15.432Z,33.21
2023-05-11T08:11:15.485Z,33.16
2023-05-11T08:12:15.523Z,33.11
2023-05-11T08:13:15.562Z,33.08
2023-05-11T08:14:15.623Z,32.98
2023-05-11T08:15:15.669Z,32.90
2023-05-11T08:16:15.720Z,32.95
2023-05-11T08:17:15.799Z,32.91
2023-05-11T08:18:15.864Z,32.78
2023-05-11T08:19:15.893Z,32.82
2023-05-11T08:20:15.917Z,32.76
2023-05-11T08:21:15.983Z,32.65
2023-05-11T08:22:16.026Z,32.66
2023-05-11T08:23:16.086Z,32.62
2023-05-11T08:24:16.469Z,32.61
2023-05-11T08:25:16.216Z,32.61
2023-05-11T08:26:16.221Z,32.56
2023-05-11T08:27:16.276Z,32.67
2023-05-11T08:28:16.583Z,32.66
2023-05-11T08:29:16.378Z,32.63
2023-05-11T08:30:16.440Z,32.57
2023-05-11T08:31:16.496Z,32.50
2023-05-11T08:32:16.592Z,32.46
2023-05-11T08:33:35.843Z,32.37
2023-05-11T08:34:20.203Z,32.41
2023-05-11T08:35:16.677Z,32.31
2023-05-11T08:36:16.582Z,32.38
2023-05-11T08:37:16.566Z,31.98
2023-05-11T08:38:16.556Z,32.51
2023-05-11T08:39:28.306Z,33.39
2023-05-11T08:40:17.554Z,34.08
2023-05-11T08:41:16.575Z,34.35
2023-05-11T08:42:16.580Z,34.52
2023-05-11T08:43:16.600Z,34.46
2023-05-11T08:44:16.562Z,34.38
2023-05-11T08:45:16.839Z,34.25
2023-05-11T08:46:16.649Z,34.06
2023-05-11T08:47:23.355Z,33.94
2023-05-11T08:48:18.069Z,33.55
2023-05-11T08:49:16.597Z,33.47
2023-05-11T08:50:16.611Z,34.62
2023-05-11T08:51:16.604Z,34.72
2023-05-11T08:52:16.626Z,35.23
2023-05-11T08:53:16.617Z,35.44
2023-05-11T08:54:16.642Z,35.51
2023-05-11T08:55:16.905Z,35.37
2023-05-11T08:56:16.639Z,35.33
2023-05-11T08:57:16.689Z,35.45
2023-05-11T08:58:16.623Z,35.34
2023-05-11T08:59:16.665Z,35.92
2023-05-11T09:00:16.659Z,35.65
2023-05-11T09:01:16.688Z,35.44
2023-05-11T09:02:16.717Z,35.20
2023-05-11T09:03:16.649Z,35.33
2023-05-11T09:04:16.682Z,35.05
2023-05-11T09:05:16.772Z,34.80
2023-05-11T09:06:16.715Z,34.46
2023-05-11T09:07:16.740Z,34.31
2023-05-11T09:08:16.788Z,33.83
2023-05-11T09:09:16.880Z,34.09
2023-05-11T09:10:16.848Z,33.85
2023-05-11T09:11:16.947Z,33.51
2023-05-11T09:12:17.007Z,33.36
2023-05-11T09:13:16.938Z,32.78
2023-05-11T09:14:16.983Z,32.43
2023-05-11T09:15:16.998Z,32.61
2023-05-11T09:16:35.591Z,32.89
2023-05-11T09:17:18.036Z,32.64
2023-05-11T09:18:17.121Z,33.75
2023-05-11T09:19:17.089Z,34.16
2023-05-11T09:20:17.320Z,34.29
2023-05-11T09:21:17.116Z,34.46
2023-05-11T09:22:17.131Z,34.29
2023-05-11T09:23:17.162Z,34.24
2023-05-11T09:24:17.149Z,34.28
2023-05-11T09:25:17.263Z,34.37
2023-05-11T09:26:17.152Z,34.53
2023-05-11T09:27:21.132Z,34.63
2023-05-11T09:28:24.902Z,34.54
2023-05-11T09:29:18.160Z,34.71
2023-05-11T09:31:17.218Z,34.90
2023-05-11T09:32:17.215Z,35.00
2023-05-11T09:33:17.173Z,34.91
2023-05-11T09:34:17.232Z,34.90
2023-05-11T09:35:17.522Z,35.00
2023-05-11T09:36:17.200Z,35.17
2023-05-11T09:37:17.200Z,34.97
2023-05-11T09:38:17.200Z,34.95
2023-05-11T09:40:26.764Z,35.05
2023-05-11T09:41:18.219Z,34.99
2023-05-11T09:42:17.235Z,35.15
2023-05-11T09:43:17.200Z,35.60
2023-05-11T09:44:17.656Z,35.88
2023-05-11T09:45:17.300Z,34.86
2023-05-11T09:46:17.230Z,33.51
2023-05-11T09:47:18.126Z,35.25
2023-05-11T09:48:17.247Z,35.35
2023-05-11T09:49:17.229Z,35.48
2023-05-11T09:50:17.244Z,34.75
2023-05-11T09:51:17.276Z,34.62
2023-05-11T09:52:17.192Z,34.09
2023-05-11T09:53:17.239Z,34.19
2023-05-11T09:54:17.216Z,33.93
2023-05-11T09:55:17.444Z,33.87
2023-05-11T09:56:17.334Z,34.14
2023-05-11T09:57:17.377Z,34.12
2023-05-11T09:58:17.430Z,34.06
2023-05-11T09:59:17.490Z,34.33
2023-05-11T10:00:17.539Z,34.23
2023-05-11T10:01:17.603Z,33.85
2023-05-11T10:02:17.691Z,34.06
2023-05-11T10:03:17.859Z,34.04
2023-05-11T10:04:23.462Z,33.58
2023-05-11T10:05:18.846Z,33.68
2023-05-11T10:06:19.930Z,33.64
2023-05-11T10:07:17.918Z,33.73
2023-05-11T10:08:17.944Z,33.93
2023-05-11T10:09:17.973Z,33.47
2023-05-11T10:10:18.111Z,33.54
2023-05-11T10:11:18.102Z,33.41
2023-05-11T10:12:18.169Z,33.38
2023-05-11T10:13:18.213Z,33.50
2023-05-11T10:14:18.322Z,33.76
2023-05-11T10:15:18.460Z,33.77
2023-05-11T10:16:18.381Z,33.95
2023-05-11T10:17:18.370Z,34.25
2023-05-11T10:18:20.096Z,34.05
2023-05-11T10:19:18.445Z,34.07
2023-05-11T10:20:18.645Z,34.10
2023-05-11T10:21:18.539Z,33.55
2023-05-11T10:22:18.614Z,33.29
2023-05-11T10:23:18.601Z,33.98
2023-05-11T10:24:20.344Z,33.85
2023-05-11T10:25:18.698Z,33.62
2023-05-11T10:26:18.771Z,34.08
2023-05-11T10:27:18.796Z,33.49
2023-05-11T10:28:18.829Z,33.37
2023-05-11T10:29:18.869Z,33.29
2023-05-11T10:30:19.063Z,33.51
2023-05-11T10:31:18.977Z,33.72
2023-05-11T10:32:19.011Z,33.70
2023-05-11T10:33:19.055Z,33.63
2023-05-11T10:34:19.166Z,33.76
2023-05-11T10:35:19.178Z,33.78
2023-05-11T10:36:19.641Z,33.79
2023-05-11T10:37:19.299Z,32.96
2023-05-11T10:38:19.295Z,34.53
2023-05-11T10:39:19.641Z,35.92
2023-05-11T10:40:19.523Z,35.70
2023-05-11T10:41:19.338Z,36.51
2023-05-11T10:42:19.438Z,35.73
2023-05-11T10:43:19.406Z,35.31
2023-05-11T10:44:19.433Z,35.10
2023-05-11T10:45:19.526Z,34.98
2023-05-11T10:46:19.554Z,34.75
2023-05-11T10:47:19.554Z,34.88
2023-05-11T10:48:19.603Z,34.76
2023-05-11T10:49:19.637Z,34.79
2023-05-11T10:50:19.975Z,34.80
2023-05-11T10:51:19.737Z,34.81
2023-05-11T10:52:19.793Z,34.82
2023-05-11T10:53:19.878Z,34.76
2023-05-11T10:54:19.925Z,34.99
2023-05-11T10:55:20.404Z,35.02
2023-05-11T10:56:19.991Z,34.96
2023-05-11T10:57:20.037Z,35.00
2023-05-11T10:58:20.090Z,34.99
2023-05-11T10:59:20.137Z,34.99
2023-05-11T11:00:21.019Z,34.74
2023-05-11T11:01:20.261Z,34.67
2023-05-11T11:02:20.312Z,34.65
2023-05-11T11:03:20.334Z,34.81
2023-05-11T11:04:20.426Z,34.77
2023-05-11T11:05:20.770Z,34.73
2023-05-11T11:06:20.519Z,34.75
2023-05-11T11:07:20.497Z,34.75
2023-05-11T11:08:20.586Z,34.83
2023-05-11T11:09:20.591Z,34.87
2023-05-11T11:10:20.874Z,34.79
2023-05-11T11:11:20.722Z,34.75
2023-05-11T11:12:20.734Z,34.70
2023-05-11T11:13:20.822Z,34.74
2023-05-11T11:14:20.820Z,34.72
2023-05-11T11:15:20.914Z,34.74
2023-05-11T11:16:20.948Z,34.62
2023-05-11T11:17:21.067Z,34.63
2023-05-11T11:18:21.049Z,34.58
2023-05-11T11:19:21.064Z,34.56
2023-05-11T11:20:21.266Z,34.46
2023-05-11T11:21:21.217Z,34.45
2023-05-11T11:22:21.256Z,34.46
2023-05-11T11:23:21.340Z,34.44
2023-05-11T11:24:21.304Z,34.45
2023-05-11T11:25:21.727Z,34.36
2023-05-11T11:26:21.382Z,34.32
2023-05-11T11:27:21.428Z,34.34
2023-05-11T11:28:21.467Z,34.30
2023-05-11T11:29:21.494Z,33.72
2023-05-11T11:30:21.665Z,33.76
2023-05-11T11:31:21.681Z,33.98
2023-05-11T11:32:21.677Z,33.80
2023-05-11T11:33:21.712Z,33.87
2023-05-11T11:34:21.733Z,33.90
2023-05-11T11:35:22.201Z,33.93
2023-05-11T11:36:21.883Z,33.94
2023-05-11T11:37:21.909Z,34.00
2023-05-11T11:38:21.957Z,34.19
2023-05-11T11:39:21.990Z,34.18
2023-05-11T11:40:22.060Z,34.07
2023-05-11T11:41:22.066Z,34.11
2023-05-11T11:42:22.149Z,34.06
2023-05-11T11:43:22.229Z,33.98
2023-05-11T11:44:22.232Z,34.02
2023-05-11T11:45:22.272Z,33.96
2023-05-11T11:46:22.310Z,33.93
2023-05-11T11:47:22.370Z,33.87
2023-05-11T11:48:22.382Z,33.91
2023-05-11T11:49:22.396Z,33.89
2023-05-11T11:50:22.446Z,34.01
2023-05-11T11:51:22.469Z,34.13
2023-05-11T11:52:22.495Z,34.17
2023-05-11T11:53:22.521Z,34.12
2023-05-11T11:54:22.553Z,33.96
2023-05-11T11:55:22.671Z,34.09
2023-05-11T11:56:22.656Z,34.16
2023-05-11T11:57:22.663Z,34.06
2023-05-11T11:58:22.706Z,34.03
2023-05-11T11:59:22.756Z,34.17
2023-05-11T12:00:22.836Z,34.07
2023-05-11T12:01:22.793Z,33.99
2023-05-11T12:02:22.969Z,33.93
2023-05-11T12:03:23.015Z,33.89
2023-05-11T12:04:22.987Z,33.97
2023-05-11T12:05:23.481Z,33.84
2023-05-11T12:06:25.011Z,33.79
2023-05-11T12:07:22.898Z,33.80
2023-05-11T12:08:22.902Z,33.78
2023-05-11T12:09:22.908Z,33.73
2023-05-11T12:10:22.896Z,33.75
2023-05-11T12:11:22.900Z,33.75
2023-05-11T12:12:22.876Z,33.76
2023-05-11T12:13:22.866Z,33.74
2023-05-11T12:14:22.830Z,33.72
2023-05-11T12:15:22.880Z,33.70
2023-05-11T12:16:22.926Z,33.72
2023-05-11T12:17:22.881Z,33.71
2023-05-11T12:18:22.884Z,33.76
2023-05-11T12:19:22.829Z,33.77
2023-05-11T12:20:22.812Z,33.72
2023-05-11T12:21:22.873Z,33.67
2023-05-11T12:22:22.784Z,33.63
2023-05-11T12:23:22.757Z,33.61
2023-05-11T12:24:22.832Z,33.58
2023-05-11T12:25:23.078Z,33.72
2023-05-11T12:26:22.774Z,33.84
2023-05-11T12:27:22.757Z,33.90
2023-05-11T12:28:22.760Z,33.89
2023-05-11T12:29:22.767Z,33.89
2023-05-11T12:30:22.739Z,34.01
2023-05-11T12:31:22.768Z,34.18
2023-05-11T12:32:22.720Z,34.22
2023-05-11T12:33:22.783Z,33.94
2023-05-11T12:34:22.739Z,34.38
2023-05-11T12:35:22.723Z,33.63
2023-05-11T12:36:22.725Z,34.18
2023-05-11T12:37:22.781Z,35.51
2023-05-11T12:38:22.743Z,36.12
2023-05-11T12:39:22.816Z,36.19
2023-05-11T12:40:22.805Z,36.05
2023-05-11T12:41:22.785Z,35.88
2023-05-11T12:42:22.811Z,35.74
2023-05-11T12:43:22.820Z,35.60
2023-05-11T12:44:22.870Z,35.32
2023-05-11T12:45:22.828Z,35.20
2023-05-11T12:46:22.848Z,35.10
2023-05-11T12:47:22.857Z,34.91
2023-05-11T12:48:22.864Z,34.86
2023-05-11T12:49:26.664Z,34.47
2023-05-11T12:50:22.989Z,34.35
2023-05-11T12:51:22.868Z,34.28
2023-05-11T12:52:22.869Z,34.29
2023-05-11T12:53:22.874Z,34.27
2023-05-11T12:54:23.226Z,34.25
2023-05-11T12:55:23.270Z,34.34